PWSweather.com
Personal Weather Stations
Station Observations
KB2SBX
Sugarloaf, Sugarloaf, PA 18249

SugarloafSugarloaf, PA 18249

Lat: 41.0126685, Lon: -76.1082041

Elevation: 1030

Station Type: WS-2080

http://sugarloafpaweather.webng.com/weather.shtml

High Low Average
Temperature 57.7°F14.3°C 31.8°F-0.1°C 40.8°F4.9°C
Dew Point 51.1°F10.6°C 27.6°F-2.4°C 36.1°F2.3°C
Winds 6.0 mph 9.7 kmh Calm Calm 1.0 mph E1.6 kmh E
Wind Gusts 13.0 mph20.9 kmh -- 3.0 mph4.8 kmh
Humidity 91% 72% 83%
Pressure 30.15 in1021.0 mb 29.69 in1005.4 mb -
Precipitation 0.13 in3.3 mm - -
Hour Temp Dew Point Humidity Winds Wind Gusts Pressure Precip Precip Rate Daily Precip Total
12:00 AM 36.9°F2.7°C 29.7°F-1.3°C 75% 0.7 mph N1.1 kmh N 3.1 mph5.0 kmh 30.17 in1021.7 mb 0.00 in0.0 mm 0.00 in0.0 mm 0.00 in0.0 mm
12:10 AM 36.7°F2.6°C 29.5°F-1.4°C 75% 0.7 mph NNE1.1 kmh NNE 1.6 mph2.6 kmh 30.16 in1021.3 mb 0.00 in0.0 mm 0.00 in0.0 mm 0.00 in0.0 mm
12:20 AM 36.5°F2.5°C 29.3°F-1.5°C 75% 0.7 mph NW1.1 kmh NW 2.2 mph3.5 kmh 30.17 in1021.7 mb 0.00 in0.0 mm 0.00 in0.0 mm 0.00 in0.0 mm
12:30 AM 36.5°F2.5°C 29.7°F-1.3°C 76% Calm Calm 1.6 mph2.6 kmh 30.16 in1021.3 mb 0.00 in0.0 mm 0.00 in0.0 mm 0.00 in0.0 mm
12:40 AM 36.5°F2.5°C 29.7°F-1.3°C 76% 0.7 mph NNE1.1 kmh NNE 1.6 mph2.6 kmh 30.15 in1021.0 mb 0.00 in0.0 mm 0.00 in0.0 mm 0.00 in0.0 mm
12:50 AM 36.3°F2.4°C 29.5°F-1.4°C 76% Calm Calm 3.1 mph5.0 kmh 30.14 in1020.7 mb 0.00 in0.0 mm 0.00 in0.0 mm 0.00 in0.0 mm
01:07 AM 36.0°F2.2°C 29.4°F-1.4°C 77% 1.6 mph N2.6 kmh N 3.1 mph5.0 kmh 30.14 in1020.7 mb 0.00 in0.0 mm 0.00 in0.0 mm 0.00 in0.0 mm
01:08 AM 35.8°F2.1°C 29.3°F-1.5°C 77% 0.7 mph N1.1 kmh N 3.1 mph5.0 kmh 30.14 in1020.7 mb 0.00 in0.0 mm 0.00 in0.0 mm 0.00 in0.0 mm
01:09 AM 35.8°F2.1°C 29.3°F-1.5°C 77% 0.7 mph N1.1 kmh N 3.1 mph5.0 kmh 30.14 in1020.7 mb 0.00 in0.0 mm 0.00 in0.0 mm 0.00 in0.0 mm
01:10 AM 35.8°F2.1°C 29.3°F-1.5°C 77% 1.6 mph N2.6 kmh N 3.1 mph5.0 kmh 30.14 in1020.7 mb 0.00 in0.0 mm 0.00 in0.0 mm 0.00 in0.0 mm
01:11 AM 35.8°F2.1°C 29.3°F-1.5°C 77% 1.6 mph N2.6 kmh N 3.1 mph5.0 kmh 30.14 in1020.7 mb 0.00 in0.0 mm 0.00 in0.0 mm 0.00 in0.0 mm
01:12 AM 35.8°F2.1°C 29.3°F-1.5°C 77% 0.7 mph N1.1 kmh N 2.2 mph3.5 kmh 30.14 in1020.7 mb 0.00 in0.0 mm 0.00 in0.0 mm 0.00 in0.0 mm
01:13 AM 35.6°F2.0°C 29.1°F-1.6°C 77% Calm Calm 2.2 mph3.5 kmh 30.14 in1020.7 mb 0.00 in0.0 mm 0.00 in0.0 mm 0.00 in0.0 mm
01:14 AM 35.6°F2.0°C 29.1°F-1.6°C 77% Calm Calm 2.2 mph3.5 kmh 30.14 in1020.7 mb 0.00 in0.0 mm 0.00 in0.0 mm 0.00 in0.0 mm
01:15 AM 35.6°F2.0°C 29.1°F-1.6°C 77% Calm Calm 2.2 mph3.5 kmh 30.14 in1020.7 mb 0.00 in0.0 mm 0.00 in0.0 mm 0.00 in0.0 mm
01:16 AM 35.6°F2.0°C 29.1°F-1.6°C 77% Calm Calm 2.2 mph3.5 kmh 30.14 in1020.7 mb 0.00 in0.0 mm 0.00 in0.0 mm 0.00 in0.0 mm
01:17 AM 35.6°F2.0°C 29.1°F-1.6°C 77% 0.7 mph N1.1 kmh N 2.2 mph3.5 kmh 30.14 in1020.7 mb 0.00 in0.0 mm 0.00 in0.0 mm 0.00 in0.0 mm
01:18 AM 35.6°F2.0°C 29.1°F-1.6°C 77% Calm Calm 2.2 mph3.5 kmh 30.14 in1020.7 mb 0.00 in0.0 mm 0.00 in0.0 mm 0.00 in0.0 mm
01:19 AM 35.6°F2.0°C 29.1°F-1.6°C 77% Calm Calm 2.2 mph3.5 kmh 30.14 in1020.7 mb 0.00 in0.0 mm 0.00 in0.0 mm 0.00 in0.0 mm
01:20 AM 35.6°F2.0°C 29.1°F-1.6°C 77% Calm Calm 2.2 mph3.5 kmh 30.14 in1020.7 mb 0.00 in0.0 mm 0.00 in0.0 mm 0.00 in0.0 mm
01:21 AM 35.6°F2.0°C 29.1°F-1.6°C 77% Calm Calm 1.6 mph2.6 kmh 30.14 in1020.7 mb 0.00 in0.0 mm 0.00 in0.0 mm 0.00 in0.0 mm
01:22 AM 36.5°F2.5°C 29.7°F-1.3°C 76% 0.7 mph NNE1.1 kmh NNE 2.2 mph3.5 kmh 30.15 in1021.0 mb 0.00 in0.0 mm 0.00 in0.0 mm 0.00 in0.0 mm
01:23 AM 35.6°F2.0°C 29.1°F-1.6°C 77% 0.7 mph N1.1 kmh N 2.2 mph3.5 kmh 30.14 in1020.7 mb 0.00 in0.0 mm 0.00 in0.0 mm 0.00 in0.0 mm
01:24 AM 35.4°F1.9°C 29.2°F-1.6°C 78% 0.7 mph NNE1.1 kmh NNE 2.2 mph3.5 kmh 30.14 in1020.7 mb 0.00 in0.0 mm 0.00 in0.0 mm 0.00 in0.0 mm
01:25 AM 35.4°F1.9°C 29.2°F-1.6°C 78% Calm Calm 2.2 mph3.5 kmh 30.14 in1020.7 mb 0.00 in0.0 mm 0.00 in0.0 mm 0.00 in0.0 mm
01:26 AM 35.4°F1.9°C 29.2°F-1.6°C 78% Calm Calm 2.2 mph3.5 kmh 30.14 in1020.7 mb 0.00 in0.0 mm 0.00 in0.0 mm 0.00 in0.0 mm
01:27 AM 35.4°F1.9°C 29.2°F-1.6°C 78% Calm Calm 2.2 mph3.5 kmh 30.14 in1020.7 mb 0.00 in0.0 mm 0.00 in0.0 mm 0.00 in0.0 mm
01:28 AM 35.4°F1.9°C 29.2°F-1.6°C 78% 0.7 mph NNE1.1 kmh NNE 2.2 mph3.5 kmh 30.13 in1020.3 mb 0.00 in0.0 mm 0.00 in0.0 mm 0.00 in0.0 mm
01:29 AM 35.4°F1.9°C 29.2°F-1.6°C 78% Calm Calm 2.2 mph3.5 kmh 30.14 in1020.7 mb 0.00 in0.0 mm 0.00 in0.0 mm 0.00 in0.0 mm
01:30 AM 35.4°F1.9°C 29.2°F-1.6°C 78% 0.7 mph NE1.1 kmh NE 2.2 mph3.5 kmh 30.14 in1020.7 mb 0.00 in0.0 mm 0.00 in0.0 mm 0.00 in0.0 mm
01:31 AM 35.4°F1.9°C 29.2°F-1.6°C 78% Calm Calm 2.2 mph3.5 kmh 30.13 in1020.3 mb 0.00 in0.0 mm 0.00 in0.0 mm 0.00 in0.0 mm
01:40 AM 35.2°F1.8°C 29.4°F-1.4°C 79% Calm Calm 1.6 mph2.6 kmh 30.12 in1020.0 mb 0.00 in0.0 mm 0.00 in0.0 mm 0.00 in0.0 mm
01:50 AM 34.9°F1.6°C 29.0°F-1.7°C 79% 0.7 mph N1.1 kmh N 1.6 mph2.6 kmh 30.11 in1019.6 mb 0.00 in0.0 mm 0.00 in0.0 mm 0.00 in0.0 mm
02:00 AM 34.7°F1.5°C 28.9°F-1.7°C 79% Calm Calm 1.6 mph2.6 kmh 30.10 in1019.3 mb 0.00 in0.0 mm 0.00 in0.0 mm 0.00 in0.0 mm
02:20 AM 34.5°F1.4°C 28.7°F-1.8°C 79% Calm Calm 1.6 mph2.6 kmh 30.09 in1019.0 mb 0.00 in0.0 mm 0.00 in0.0 mm 0.00 in0.0 mm
02:30 AM 34.3°F1.3°C 28.5°F-1.9°C 79% 0.7 mph N1.1 kmh N 2.2 mph3.5 kmh 30.09 in1019.0 mb 0.00 in0.0 mm 0.00 in0.0 mm 0.00 in0.0 mm
02:40 AM 34.3°F1.3°C 28.8°F-1.8°C 80% 0.7 mph N1.1 kmh N 2.2 mph3.5 kmh 30.09 in1019.0 mb 0.00 in0.0 mm 0.00 in0.0 mm 0.00 in0.0 mm
02:50 AM 34.2°F1.2°C 28.7°F-1.8°C 80% 0.7 mph NNE1.1 kmh NNE 1.6 mph2.6 kmh 30.08 in1018.6 mb 0.00 in0.0 mm 0.00 in0.0 mm 0.00 in0.0 mm
03:00 AM 34.2°F1.2°C 28.7°F-1.8°C 80% 0.7 mph NNE1.1 kmh NNE 1.6 mph2.6 kmh 30.07 in1018.3 mb 0.00 in0.0 mm 0.00 in0.0 mm 0.00 in0.0 mm
03:10 AM 34.2°F1.2°C 28.7°F-1.8°C 80% 0.7 mph NNE1.1 kmh NNE 1.6 mph2.6 kmh 30.07 in1018.3 mb 0.00 in0.0 mm 0.00 in0.0 mm 0.00 in0.0 mm
03:20 AM 34.2°F1.2°C 29.0°F-1.7°C 81% Calm Calm 1.6 mph2.6 kmh 30.07 in1018.3 mb 0.00 in0.0 mm 0.00 in0.0 mm 0.00 in0.0 mm
03:30 AM 34.3°F1.3°C 29.1°F-1.6°C 81% Calm Calm 1.6 mph2.6 kmh 30.07 in1018.3 mb 0.00 in0.0 mm 0.00 in0.0 mm 0.00 in0.0 mm
03:40 AM 34.2°F1.2°C 29.0°F-1.7°C 81% Calm Calm 0.7 mph1.1 kmh 30.07 in1018.3 mb 0.00 in0.0 mm 0.00 in0.0 mm 0.00 in0.0 mm
03:50 AM 34.3°F1.3°C 29.1°F-1.6°C 81% Calm Calm 1.6 mph2.6 kmh 30.07 in1018.3 mb 0.00 in0.0 mm 0.00 in0.0 mm 0.00 in0.0 mm
04:00 AM 34.5°F1.4°C 29.6°F-1.3°C 82% Calm Calm 1.6 mph2.6 kmh 30.07 in1018.3 mb 0.00 in0.0 mm 0.00 in0.0 mm 0.00 in0.0 mm
04:10 AM 34.3°F1.3°C 29.4°F-1.4°C 82% Calm Calm 0.7 mph1.1 kmh 30.06 in1017.9 mb 0.00 in0.0 mm 0.00 in0.0 mm 0.00 in0.0 mm
04:20 AM 34.2°F1.2°C 29.3°F-1.5°C 82% Calm Calm 1.6 mph2.6 kmh 30.06 in1017.9 mb 0.00 in0.0 mm 0.00 in0.0 mm 0.00 in0.0 mm
04:30 AM 34.2°F1.2°C 29.3°F-1.5°C 82% 0.7 mph NNE1.1 kmh NNE 1.6 mph2.6 kmh 30.05 in1017.6 mb 0.00 in0.0 mm 0.00 in0.0 mm 0.00 in0.0 mm
04:40 AM 34.2°F1.2°C 29.3°F-1.5°C 82% Calm Calm 1.6 mph2.6 kmh 30.05 in1017.6 mb 0.00 in0.0 mm 0.00 in0.0 mm 0.00 in0.0 mm
04:50 AM 34.3°F1.3°C 29.4°F-1.4°C 82% Calm Calm 1.6 mph2.6 kmh 30.05 in1017.6 mb 0.00 in0.0 mm 0.00 in0.0 mm 0.00 in0.0 mm
05:00 AM 34.2°F1.2°C 29.3°F-1.5°C 82% Calm Calm 0.7 mph1.1 kmh 30.05 in1017.6 mb 0.00 in0.0 mm 0.00 in0.0 mm 0.00 in0.0 mm
05:10 AM 34.3°F1.3°C 29.4°F-1.4°C 82% Calm Calm 0.7 mph1.1 kmh 30.04 in1017.3 mb 0.00 in0.0 mm 0.00 in0.0 mm 0.00 in0.0 mm
05:20 AM 34.3°F1.3°C 29.7°F-1.3°C 83% Calm Calm 0.7 mph1.1 kmh 30.04 in1017.3 mb 0.00 in0.0 mm 0.00 in0.0 mm 0.00 in0.0 mm
05:30 AM 34.2°F1.2°C 29.6°F-1.3°C 83% Calm Calm 0.7 mph1.1 kmh 30.04 in1017.3 mb 0.00 in0.0 mm 0.00 in0.0 mm 0.00 in0.0 mm
05:40 AM 33.6°F0.9°C 29.0°F-1.7°C 83% Calm Calm 0.7 mph1.1 kmh 30.03 in1016.9 mb 0.00 in0.0 mm 0.00 in0.0 mm 0.00 in0.0 mm
05:50 AM 33.1°F0.6°C 28.5°F-1.9°C 83% Calm Calm 0.7 mph1.1 kmh 30.02 in1016.6 mb 0.00 in0.0 mm 0.00 in0.0 mm 0.00 in0.0 mm
06:00 AM 32.7°F0.4°C 28.1°F-2.2°C 83% Calm Calm -- 30.02 in1016.6 mb 0.00 in0.0 mm 0.00 in0.0 mm 0.00 in0.0 mm
06:10 AM 32.4°F0.2°C 27.8°F-2.3°C 83% Calm Calm -- 30.01 in1016.3 mb 0.00 in0.0 mm 0.00 in0.0 mm 0.00 in0.0 mm
06:20 AM 32.4°F0.2°C 27.8°F-2.3°C 83% Calm Calm 0.7 mph1.1 kmh 30.00 in1015.9 mb 0.00 in0.0 mm 0.00 in0.0 mm 0.00 in0.0 mm
06:30 AM 32.5°F0.3°C 28.0°F-2.2°C 83% Calm Calm 0.7 mph1.1 kmh 30.00 in1015.9 mb 0.00 in0.0 mm 0.00 in0.0 mm 0.00 in0.0 mm
06:40 AM 32.4°F0.2°C 27.8°F-2.3°C 83% Calm Calm 0.7 mph1.1 kmh 30.00 in1015.9 mb 0.00 in0.0 mm 0.00 in0.0 mm 0.00 in0.0 mm
06:50 AM 31.8°F-0.1°C 27.6°F-2.4°C 84% Calm Calm 0.7 mph1.1 kmh 30.00 in1015.9 mb 0.00 in0.0 mm 0.00 in0.0 mm 0.00 in0.0 mm
07:00 AM 31.8°F-0.1°C 27.6°F-2.4°C 84% Calm Calm 0.7 mph1.1 kmh 30.00 in1015.9 mb 0.00 in0.0 mm 0.00 in0.0 mm 0.00 in0.0 mm
07:10 AM 32.2°F0.1°C 27.6°F-2.4°C 83% Calm Calm 0.7 mph1.1 kmh 30.00 in1015.9 mb 0.00 in0.0 mm 0.00 in0.0 mm 0.00 in0.0 mm
07:20 AM 32.2°F0.1°C 27.9°F-2.3°C 84% Calm Calm 0.7 mph1.1 kmh 29.99 in1015.6 mb 0.00 in0.0 mm 0.00 in0.0 mm 0.00 in0.0 mm
07:30 AM 32.4°F0.2°C 28.1°F-2.2°C 84% Calm Calm 1.6 mph2.6 kmh 29.99 in1015.6 mb 0.00 in0.0 mm 0.00 in0.0 mm 0.00 in0.0 mm
07:40 AM 32.4°F0.2°C 28.1°F-2.2°C 84% Calm Calm 0.7 mph1.1 kmh 29.99 in1015.6 mb 0.00 in0.0 mm 0.00 in0.0 mm 0.00 in0.0 mm
07:50 AM 32.4°F0.2°C 28.1°F-2.2°C 84% 0.7 mph N1.1 kmh N 3.1 mph5.0 kmh 29.98 in1015.2 mb 0.00 in0.0 mm 0.00 in0.0 mm 0.00 in0.0 mm
08:00 AM 32.7°F0.4°C 28.4°F-2.0°C 84% Calm Calm 1.6 mph2.6 kmh 29.97 in1014.9 mb 0.00 in0.0 mm 0.00 in0.0 mm 0.00 in0.0 mm
08:10 AM 33.3°F0.7°C 29.3°F-1.5°C 85% Calm Calm -- 29.97 in1014.9 mb 0.00 in0.0 mm 0.00 in0.0 mm 0.00 in0.0 mm
08:20 AM 33.8°F1.0°C 29.5°F-1.4°C 84% Calm Calm 1.6 mph2.6 kmh 29.98 in1015.2 mb 0.00 in0.0 mm 0.00 in0.0 mm 0.00 in0.0 mm
08:30 AM 34.3°F1.3°C 30.3°F-0.9°C 85% Calm Calm 1.6 mph2.6 kmh 29.97 in1014.9 mb 0.00 in0.0 mm 0.00 in0.0 mm 0.00 in0.0 mm
08:40 AM 35.1°F1.7°C 31.0°F-0.6°C 85% Calm Calm 1.6 mph2.6 kmh 29.97 in1014.9 mb 0.00 in0.0 mm 0.00 in0.0 mm 0.00 in0.0 mm
08:50 AM 35.8°F2.1°C 31.7°F-0.2°C 85% Calm Calm 1.6 mph2.6 kmh 29.97 in1014.9 mb 0.00 in0.0 mm 0.00 in0.0 mm 0.00 in0.0 mm
09:00 AM 36.7°F2.6°C 32.6°F0.3°C 85% Calm Calm 1.6 mph2.6 kmh 29.97 in1014.9 mb 0.00 in0.0 mm 0.00 in0.0 mm 0.00 in0.0 mm
09:16 AM 37.4°F3.0°C 34.7°F1.5°C 90% Calm Calm 0.7 mph1.1 kmh 29.96 in1014.6 mb 0.00 in0.0 mm 0.00 in0.0 mm 0.00 in0.0 mm
09:17 AM 37.4°F3.0°C 34.7°F1.5°C 90% Calm Calm 0.7 mph1.1 kmh 29.96 in1014.6 mb 0.00 in0.0 mm 0.00 in0.0 mm 0.00 in0.0 mm
09:18 AM 37.4°F3.0°C 34.7°F1.5°C 90% Calm Calm 0.7 mph1.1 kmh 29.96 in1014.6 mb 0.00 in0.0 mm 0.00 in0.0 mm 0.00 in0.0 mm
09:19 AM 37.6°F3.1°C 34.9°F1.6°C 90% Calm Calm 1.6 mph2.6 kmh 29.96 in1014.6 mb 0.00 in0.0 mm 0.00 in0.0 mm 0.00 in0.0 mm
09:20 AM 37.6°F3.1°C 34.9°F1.6°C 90% 1.6 mph NE2.6 kmh NE 2.2 mph3.5 kmh 29.96 in1014.6 mb 0.00 in0.0 mm 0.00 in0.0 mm 0.00 in0.0 mm
09:21 AM 37.6°F3.1°C 35.2°F1.8°C 91% 0.7 mph NNE1.1 kmh NNE 2.2 mph3.5 kmh 29.95 in1014.2 mb 0.00 in0.0 mm 0.00 in0.0 mm 0.00 in0.0 mm
09:22 AM 37.6°F3.1°C 35.2°F1.8°C 91% Calm Calm 2.2 mph3.5 kmh 29.95 in1014.2 mb 0.00 in0.0 mm 0.00 in0.0 mm 0.00 in0.0 mm
09:23 AM 37.6°F3.1°C 35.2°F1.8°C 91% Calm Calm 2.2 mph3.5 kmh 29.96 in1014.6 mb 0.00 in0.0 mm 0.00 in0.0 mm 0.00 in0.0 mm
09:24 AM 37.6°F3.1°C 35.2°F1.8°C 91% Calm Calm 2.2 mph3.5 kmh 29.95 in1014.2 mb 0.00 in0.0 mm 0.00 in0.0 mm 0.00 in0.0 mm
09:25 AM 37.8°F3.2°C 35.4°F1.9°C 91% Calm Calm 2.2 mph3.5 kmh 29.95 in1014.2 mb 0.00 in0.0 mm 0.00 in0.0 mm 0.00 in0.0 mm
09:26 AM 37.8°F3.2°C 35.4°F1.9°C 91% 0.7 mph NNE1.1 kmh NNE 2.2 mph3.5 kmh 29.95 in1014.2 mb 0.00 in0.0 mm 0.00 in0.0 mm 0.00 in0.0 mm
09:27 AM 37.8°F3.2°C 35.4°F1.9°C 91% Calm Calm 2.2 mph3.5 kmh 29.95 in1014.2 mb 0.00 in0.0 mm 0.00 in0.0 mm 0.00 in0.0 mm
09:28 AM 37.8°F3.2°C 35.4°F1.9°C 91% Calm Calm 2.2 mph3.5 kmh 29.95 in1014.2 mb 0.00 in0.0 mm 0.00 in0.0 mm 0.00 in0.0 mm
09:29 AM 37.9°F3.3°C 35.5°F1.9°C 91% 0.7 mph NE1.1 kmh NE 2.2 mph3.5 kmh 29.95 in1014.2 mb 0.00 in0.0 mm 0.00 in0.0 mm 0.00 in0.0 mm
09:30 AM 37.9°F3.3°C 35.5°F1.9°C 91% 0.7 mph NE1.1 kmh NE 2.2 mph3.5 kmh 29.95 in1014.2 mb 0.00 in0.0 mm 0.00 in0.0 mm 0.00 in0.0 mm
09:40 AM 38.7°F3.7°C 36.3°F2.4°C 91% 1.6 mph NNW2.6 kmh NNW 3.8 mph6.1 kmh 29.95 in1014.2 mb 0.00 in0.0 mm 0.00 in0.0 mm 0.00 in0.0 mm
09:45 AM 39.6°F4.2°C 36.9°F2.7°C 90% Calm Calm 1.6 mph2.6 kmh 29.95 in1014.2 mb 0.00 in0.0 mm 0.00 in0.0 mm 0.00 in0.0 mm
09:46 AM 39.6°F4.2°C 36.9°F2.7°C 90% 2.2 mph NW3.5 kmh NW 3.1 mph5.0 kmh 29.95 in1014.2 mb 0.00 in0.0 mm 0.00 in0.0 mm 0.00 in0.0 mm
09:47 AM 39.7°F4.3°C 37.0°F2.8°C 90% 1.6 mph NW2.6 kmh NW 3.1 mph5.0 kmh 29.95 in1014.2 mb 0.00 in0.0 mm 0.00 in0.0 mm 0.00 in0.0 mm
09:48 AM 39.7°F4.3°C 37.0°F2.8°C 90% 3.1 mph NNW5.0 kmh NNW 3.8 mph6.1 kmh 29.95 in1014.2 mb 0.00 in0.0 mm 0.00 in0.0 mm 0.00 in0.0 mm
09:49 AM 39.9°F4.4°C 37.2°F2.9°C 90% 3.1 mph N5.0 kmh N 5.4 mph8.7 kmh 29.95 in1014.2 mb 0.00 in0.0 mm 0.00 in0.0 mm 0.00 in0.0 mm
09:50 AM 39.9°F4.4°C 37.2°F2.9°C 90% Calm Calm 5.4 mph8.7 kmh 29.95 in1014.2 mb 0.00 in0.0 mm 0.00 in0.0 mm 0.00 in0.0 mm
09:51 AM 40.1°F4.5°C 37.4°F3.0°C 90% Calm Calm 5.4 mph8.7 kmh 29.95 in1014.2 mb 0.00 in0.0 mm 0.00 in0.0 mm 0.00 in0.0 mm
09:52 AM 40.3°F4.6°C 37.6°F3.1°C 90% Calm Calm 5.4 mph8.7 kmh 29.95 in1014.2 mb 0.00 in0.0 mm 0.00 in0.0 mm 0.00 in0.0 mm
09:53 AM 40.5°F4.7°C 37.8°F3.2°C 90% Calm Calm 5.4 mph8.7 kmh 29.95 in1014.2 mb 0.00 in0.0 mm 0.00 in0.0 mm 0.00 in0.0 mm
09:54 AM 40.5°F4.7°C 37.8°F3.2°C 90% 0.7 mph N1.1 kmh N 5.4 mph8.7 kmh 29.95 in1014.2 mb 0.00 in0.0 mm 0.00 in0.0 mm 0.00 in0.0 mm
09:55 AM 40.6°F4.8°C 37.9°F3.3°C 90% Calm Calm 5.4 mph8.7 kmh 29.95 in1014.2 mb 0.00 in0.0 mm 0.00 in0.0 mm 0.00 in0.0 mm
09:56 AM 40.8°F4.9°C 38.1°F3.4°C 90% Calm Calm 5.4 mph8.7 kmh 29.94 in1013.9 mb 0.00 in0.0 mm 0.00 in0.0 mm 0.00 in0.0 mm
09:57 AM 41.0°F5.0°C 38.3°F3.5°C 90% Calm Calm 5.4 mph8.7 kmh 29.94 in1013.9 mb 0.00 in0.0 mm 0.00 in0.0 mm 0.00 in0.0 mm
09:58 AM 41.2°F5.1°C 38.5°F3.6°C 90% Calm Calm 5.4 mph8.7 kmh 29.94 in1013.9 mb 0.00 in0.0 mm 0.00 in0.0 mm 0.00 in0.0 mm
09:59 AM 41.4°F5.2°C 38.6°F3.7°C 90% 0.7 mph N1.1 kmh N 2.2 mph3.5 kmh 29.94 in1013.9 mb 0.00 in0.0 mm 0.00 in0.0 mm 0.00 in0.0 mm
10:00 AM 41.5°F5.3°C 38.8°F3.8°C 90% Calm Calm 2.2 mph3.5 kmh 29.94 in1013.9 mb 0.00 in0.0 mm 0.00 in0.0 mm 0.00 in0.0 mm
10:01 AM 41.5°F5.3°C 38.8°F3.8°C 90% Calm Calm 2.2 mph3.5 kmh 29.94 in1013.9 mb 0.00 in0.0 mm 0.00 in0.0 mm 0.00 in0.0 mm
10:02 AM 41.5°F5.3°C 38.8°F3.8°C 90% Calm Calm 2.2 mph3.5 kmh 29.93 in1013.5 mb 0.00 in0.0 mm 0.00 in0.0 mm 0.00 in0.0 mm
10:03 AM 41.5°F5.3°C 38.8°F3.8°C 90% Calm Calm 2.2 mph3.5 kmh 29.93 in1013.5 mb 0.00 in0.0 mm 0.00 in0.0 mm 0.00 in0.0 mm
10:04 AM 41.5°F5.3°C 38.8°F3.8°C 90% Calm Calm 2.2 mph3.5 kmh 29.93 in1013.5 mb 0.00 in0.0 mm 0.00 in0.0 mm 0.00 in0.0 mm
10:05 AM 41.5°F5.3°C 38.8°F3.8°C 90% Calm Calm 2.2 mph3.5 kmh 29.93 in1013.5 mb 0.00 in0.0 mm 0.00 in0.0 mm 0.00 in0.0 mm
10:06 AM 41.5°F5.3°C 38.8°F3.8°C 90% Calm Calm 2.2 mph3.5 kmh 29.93 in1013.5 mb 0.00 in0.0 mm 0.00 in0.0 mm 0.00 in0.0 mm
10:07 AM 41.5°F5.3°C 38.8°F3.8°C 90% Calm Calm 2.2 mph3.5 kmh 29.93 in1013.5 mb 0.00 in0.0 mm 0.00 in0.0 mm 0.00 in0.0 mm
10:08 AM 41.5°F5.3°C 38.8°F3.8°C 90% Calm Calm 2.2 mph3.5 kmh 29.93 in1013.5 mb 0.00 in0.0 mm 0.00 in0.0 mm 0.00 in0.0 mm
10:09 AM 43.0°F6.1°C 40.0°F4.4°C 89% Calm Calm 0.7 mph1.1 kmh 29.93 in1013.5 mb 0.00 in0.0 mm 0.00 in0.0 mm 0.00 in0.0 mm
10:10 AM 43.2°F6.2°C 40.1°F4.5°C 89% 0.7 mph SE1.1 kmh SE 1.6 mph2.6 kmh 29.93 in1013.5 mb 0.00 in0.0 mm 0.00 in0.0 mm 0.00 in0.0 mm
10:15 AM 43.9°F6.6°C 41.1°F5.1°C 90% Calm Calm 1.6 mph2.6 kmh 29.93 in1013.5 mb 0.00 in0.0 mm 0.00 in0.0 mm 0.00 in0.0 mm
10:16 AM 44.1°F6.7°C 41.3°F5.2°C 90% 0.7 mph N1.1 kmh N 1.6 mph2.6 kmh 29.93 in1013.5 mb 0.00 in0.0 mm 0.00 in0.0 mm 0.00 in0.0 mm
10:17 AM 44.2°F6.8°C 41.5°F5.3°C 90% 0.7 mph N1.1 kmh N 1.6 mph2.6 kmh 29.93 in1013.5 mb 0.00 in0.0 mm 0.00 in0.0 mm 0.00 in0.0 mm
10:18 AM 44.2°F6.8°C 41.5°F5.3°C 90% Calm Calm 1.6 mph2.6 kmh 29.93 in1013.5 mb 0.00 in0.0 mm 0.00 in0.0 mm 0.00 in0.0 mm
10:19 AM 44.4°F6.9°C 41.7°F5.4°C 90% Calm Calm 1.6 mph2.6 kmh 29.93 in1013.5 mb 0.00 in0.0 mm 0.00 in0.0 mm 0.00 in0.0 mm
10:20 AM 44.4°F6.9°C 41.7°F5.4°C 90% Calm Calm 1.6 mph2.6 kmh 29.92 in1013.2 mb 0.00 in0.0 mm 0.00 in0.0 mm 0.00 in0.0 mm
10:21 AM 44.6°F7.0°C 41.6°F5.3°C 89% Calm Calm 1.6 mph2.6 kmh 29.92 in1013.2 mb 0.00 in0.0 mm 0.00 in0.0 mm 0.00 in0.0 mm
10:22 AM 44.6°F7.0°C 41.6°F5.3°C 89% 0.7 mph NNW1.1 kmh NNW 1.6 mph2.6 kmh 29.92 in1013.2 mb 0.00 in0.0 mm 0.00 in0.0 mm 0.00 in0.0 mm
10:30 AM 45.3°F7.4°C 42.0°F5.6°C 88% 0.7 mph NW1.1 kmh NW 2.2 mph3.5 kmh 29.91 in1012.9 mb 0.00 in0.0 mm 0.00 in0.0 mm 0.00 in0.0 mm
10:40 AM 45.7°F7.6°C 42.0°F5.6°C 87% Calm Calm 2.2 mph3.5 kmh 29.91 in1012.9 mb 0.00 in0.0 mm 0.00 in0.0 mm 0.00 in0.0 mm
10:50 AM 46.6°F8.1°C 42.6°F5.9°C 86% Calm Calm 2.2 mph3.5 kmh 29.90 in1012.5 mb 0.00 in0.0 mm 0.00 in0.0 mm 0.00 in0.0 mm
11:00 AM 48.2°F9.0°C 43.9°F6.6°C 85% Calm Calm 2.2 mph3.5 kmh 29.89 in1012.2 mb 0.00 in0.0 mm 0.00 in0.0 mm 0.00 in0.0 mm
11:10 AM 50.0°F10.0°C 45.0°F7.2°C 83% 1.6 mph ENE2.6 kmh ENE 3.8 mph6.1 kmh 29.89 in1012.2 mb 0.00 in0.0 mm 0.00 in0.0 mm 0.00 in0.0 mm
11:20 AM 50.2°F10.1°C 44.6°F7.0°C 81% Calm Calm 5.4 mph8.7 kmh 29.89 in1012.2 mb 0.00 in0.0 mm 0.00 in0.0 mm 0.00 in0.0 mm
11:30 AM 50.4°F10.2°C 44.8°F7.1°C 81% 2.2 mph NNW3.5 kmh NNW 9.2 mph14.8 kmh 29.88 in1011.9 mb 0.00 in0.0 mm 0.00 in0.0 mm 0.00 in0.0 mm
11:40 AM 50.9°F10.5°C 45.6°F7.6°C 82% 3.8 mph WSW6.1 kmh WSW 9.8 mph15.8 kmh 29.87 in1011.5 mb 0.00 in0.0 mm 0.00 in0.0 mm 0.00 in0.0 mm
11:50 AM 51.4°F10.8°C 46.1°F7.8°C 82% 1.6 mph WNW2.6 kmh WNW 6.0 mph9.7 kmh 29.86 in1011.2 mb 0.00 in0.0 mm 0.00 in0.0 mm 0.00 in0.0 mm
12:00 PM 51.8°F11.0°C 46.2°F7.9°C 81% 4.5 mph WSW7.2 kmh WSW 12.1 mph19.5 kmh 29.85 in1010.8 mb 0.00 in0.0 mm 0.00 in0.0 mm 0.00 in0.0 mm
12:10 PM 52.5°F11.4°C 47.2°F8.4°C 82% 5.4 mph WSW8.7 kmh WSW 12.1 mph19.5 kmh 29.85 in1010.8 mb 0.00 in0.0 mm 0.00 in0.0 mm 0.00 in0.0 mm
12:20 PM 52.5°F11.4°C 47.2°F8.4°C 82% 3.1 mph SSW5.0 kmh SSW 13.0 mph20.9 kmh 29.84 in1010.5 mb 0.00 in0.0 mm 0.00 in0.0 mm 0.00 in0.0 mm
12:30 PM 52.9°F11.6°C 47.5°F8.6°C 82% 2.2 mph SW3.5 kmh SW 6.9 mph11.1 kmh 29.83 in1010.2 mb 0.00 in0.0 mm 0.00 in0.0 mm 0.00 in0.0 mm
12:40 PM 52.7°F11.5°C 47.0°F8.3°C 81% Calm Calm 7.6 mph12.2 kmh 29.83 in1010.2 mb 0.00 in0.0 mm 0.00 in0.0 mm 0.00 in0.0 mm
12:50 PM 52.9°F11.6°C 47.5°F8.6°C 82% 4.5 mph WSW7.2 kmh WSW 7.6 mph12.2 kmh 29.81 in1009.5 mb 0.00 in0.0 mm 0.00 in0.0 mm 0.00 in0.0 mm
01:00 PM 54.7°F12.6°C 49.0°F9.4°C 81% 3.1 mph WSW5.0 kmh WSW 8.3 mph13.4 kmh 29.81 in1009.5 mb 0.00 in0.0 mm 0.00 in0.0 mm 0.00 in0.0 mm
01:10 PM 56.8°F13.8°C 49.7°F9.8°C 77% Calm Calm 6.9 mph11.1 kmh 29.80 in1009.1 mb 0.00 in0.0 mm 0.00 in0.0 mm 0.00 in0.0 mm
01:20 PM 57.2°F14.0°C 48.6°F9.2°C 73% 0.7 mph W1.1 kmh W 9.2 mph14.8 kmh 29.79 in1008.8 mb 0.00 in0.0 mm 0.00 in0.0 mm 0.00 in0.0 mm
01:30 PM 57.7°F14.3°C 48.8°F9.3°C 72% 1.6 mph W2.6 kmh W 10.7 mph17.2 kmh 29.79 in1008.8 mb 0.00 in0.0 mm 0.00 in0.0 mm 0.00 in0.0 mm
01:40 PM 56.7°F13.7°C 48.1°F8.9°C 73% 3.1 mph WSW5.0 kmh WSW 10.7 mph17.2 kmh 29.79 in1008.8 mb 0.00 in0.0 mm 0.00 in0.0 mm 0.00 in0.0 mm
01:50 PM 56.3°F13.5°C 48.5°F9.2°C 75% Calm Calm 6.0 mph9.7 kmh 29.77 in1008.1 mb 0.00 in0.0 mm 0.00 in0.0 mm 0.00 in0.0 mm
02:00 PM 56.5°F13.6°C 48.7°F9.3°C 75% 1.6 mph W2.6 kmh W 5.4 mph8.7 kmh 29.77 in1008.1 mb 0.00 in0.0 mm 0.00 in0.0 mm 0.00 in0.0 mm
02:10 PM 56.7°F13.7°C 48.8°F9.3°C 75% 1.6 mph WNW2.6 kmh WNW 3.8 mph6.1 kmh 29.77 in1008.1 mb 0.00 in0.0 mm 0.00 in0.0 mm 0.00 in0.0 mm
02:20 PM 56.5°F13.6°C 49.0°F9.4°C 76% 3.8 mph NW6.1 kmh NW 6.9 mph11.1 kmh 29.76 in1007.8 mb 0.00 in0.0 mm 0.00 in0.0 mm 0.00 in0.0 mm
02:30 PM 55.9°F13.3°C 48.5°F9.2°C 76% 1.6 mph W2.6 kmh W 6.0 mph9.7 kmh 29.75 in1007.5 mb 0.00 in0.0 mm 0.00 in0.0 mm 0.00 in0.0 mm
02:40 PM 55.6°F13.1°C 48.5°F9.2°C 77% 0.7 mph WSW1.1 kmh WSW 5.4 mph8.7 kmh 29.74 in1007.1 mb 0.00 in0.0 mm 0.00 in0.0 mm 0.00 in0.0 mm
02:50 PM 55.4°F13.0°C 48.3°F9.1°C 77% 1.6 mph WSW2.6 kmh WSW 5.4 mph8.7 kmh 29.74 in1007.1 mb 0.00 in0.0 mm 0.00 in0.0 mm 0.00 in0.0 mm
03:00 PM 55.2°F12.9°C 48.5°F9.2°C 78% 1.6 mph W2.6 kmh W 6.9 mph11.1 kmh 29.74 in1007.1 mb 0.00 in0.0 mm 0.00 in0.0 mm 0.00 in0.0 mm
03:10 PM 55.2°F12.9°C 48.8°F9.3°C 79% 0.7 mph NW1.1 kmh NW 6.9 mph11.1 kmh 29.72 in1006.4 mb 0.00 in0.0 mm 0.00 in0.0 mm 0.00 in0.0 mm
03:20 PM 55.4°F13.0°C 49.0°F9.4°C 79% 1.6 mph WSW2.6 kmh WSW 4.5 mph7.2 kmh 29.71 in1006.1 mb 0.00 in0.0 mm 0.00 in0.0 mm 0.00 in0.0 mm
03:30 PM 55.6°F13.1°C 49.2°F9.6°C 79% 1.6 mph W2.6 kmh W 5.4 mph8.7 kmh 29.71 in1006.1 mb 0.00 in0.0 mm 0.00 in0.0 mm 0.00 in0.0 mm
03:40 PM 56.1°F13.4°C 50.0°F10.0°C 80% 1.6 mph SSW2.6 kmh SSW 5.4 mph8.7 kmh 29.71 in1006.1 mb 0.00 in0.0 mm 0.00 in0.0 mm 0.00 in0.0 mm
03:50 PM 56.5°F13.6°C 50.7°F10.4°C 81% Calm Calm 4.5 mph7.2 kmh 29.70 in1005.8 mb 0.00 in0.0 mm 0.00 in0.0 mm 0.00 in0.0 mm
04:00 PM 56.7°F13.7°C 50.9°F10.5°C 81% 0.7 mph ESE1.1 kmh ESE 2.2 mph3.5 kmh 29.70 in1005.8 mb 0.00 in0.0 mm 0.00 in0.0 mm 0.00 in0.0 mm
04:10 PM 56.8°F13.8°C 50.7°F10.4°C 80% 1.6 mph SE2.6 kmh SE 3.1 mph5.0 kmh 29.70 in1005.8 mb 0.00 in0.0 mm 0.00 in0.0 mm 0.00 in0.0 mm
04:20 PM 56.7°F13.7°C 50.9°F10.5°C 81% 0.7 mph SSE1.1 kmh SSE 5.4 mph8.7 kmh 29.70 in1005.8 mb 0.00 in0.0 mm 0.00 in0.0 mm 0.00 in0.0 mm
04:30 PM 56.7°F13.7°C 50.9°F10.5°C 81% 1.6 mph S2.6 kmh S 4.5 mph7.2 kmh 29.69 in1005.4 mb 0.00 in0.0 mm 0.00 in0.0 mm 0.00 in0.0 mm
04:40 PM 56.5°F13.6°C 50.7°F10.4°C 81% Calm Calm 5.4 mph8.7 kmh 29.69 in1005.4 mb 0.00 in0.0 mm 0.00 in0.0 mm 0.00 in0.0 mm
04:50 PM 56.5°F13.6°C 51.1°F10.6°C 82% 0.7 mph WSW1.1 kmh WSW 2.2 mph3.5 kmh 29.69 in1005.4 mb 0.00 in0.0 mm 0.00 in0.0 mm 0.00 in0.0 mm
05:00 PM 56.3°F13.5°C 50.6°F10.3°C 81% 1.6 mph NNW2.6 kmh NNW 3.1 mph5.0 kmh 29.69 in1005.4 mb 0.00 in0.0 mm 0.00 in0.0 mm 0.00 in0.0 mm
05:10 PM 56.1°F13.4°C 50.4°F10.2°C 81% 1.6 mph N2.6 kmh N 2.2 mph3.5 kmh 29.69 in1005.4 mb 0.00 in0.0 mm 0.00 in0.0 mm 0.00 in0.0 mm
05:20 PM 55.6°F13.1°C 49.9°F9.9°C 81% 2.2 mph NW3.5 kmh NW 3.1 mph5.0 kmh 29.70 in1005.8 mb 0.00 in0.0 mm 0.00 in0.0 mm 0.00 in0.0 mm
05:30 PM 55.4°F13.0°C 50.0°F10.0°C 82% Calm Calm 3.1 mph5.0 kmh 29.70 in1005.8 mb 0.00 in0.0 mm 0.00 in0.0 mm 0.00 in0.0 mm
05:40 PM 55.2°F12.9°C 49.2°F9.6°C 80% 3.1 mph NW5.0 kmh NW 4.5 mph7.2 kmh 29.71 in1006.1 mb 0.00 in0.0 mm 0.00 in0.0 mm 0.00 in0.0 mm
05:50 PM 52.7°F11.5°C 45.7°F7.6°C 77% 6.0 mph NW9.7 kmh NW 13.0 mph20.9 kmh 29.73 in1006.8 mb 0.01 in0.3 mm 0.06 in1.5 mm 0.01 in0.3 mm
06:00 PM 50.4°F10.2°C 45.1°F7.3°C 82% 4.5 mph NW7.2 kmh NW 11.4 mph18.3 kmh 29.75 in1007.5 mb 0.04 in1.0 mm 0.04 in1.0 mm 0.04 in1.0 mm
06:10 PM 48.9°F9.4°C 44.3°F6.8°C 84% 1.6 mph NNW2.6 kmh NNW 8.3 mph13.4 kmh 29.74 in1007.1 mb 0.09 in2.3 mm 0.30 in7.6 mm 0.08 in2.0 mm
06:20 PM 48.0°F8.9°C 43.7°F6.5°C 85% 2.2 mph NW3.5 kmh NW 6.0 mph9.7 kmh 29.74 in1007.1 mb 0.09 in2.3 mm 0.00 in0.0 mm 0.09 in2.3 mm
06:30 PM 46.8°F8.2°C 42.5°F5.8°C 85% 1.6 mph ESE2.6 kmh ESE 5.4 mph8.7 kmh 29.75 in1007.5 mb 0.09 in2.3 mm 0.00 in0.0 mm 0.09 in2.3 mm
06:40 PM 46.0°F7.8°C 41.8°F5.4°C 85% 0.7 mph E1.1 kmh E 4.5 mph7.2 kmh 29.76 in1007.8 mb 0.09 in2.3 mm 0.00 in0.0 mm 0.09 in2.3 mm
06:50 PM 45.7°F7.6°C 41.7°F5.4°C 86% 3.8 mph E6.1 kmh E 6.9 mph11.1 kmh 29.76 in1007.8 mb 0.08 in2.0 mm 0.00 in0.0 mm 0.09 in2.3 mm
07:00 PM 45.3°F7.4°C 41.4°F5.2°C 86% 1.6 mph N2.6 kmh N 5.4 mph8.7 kmh 29.77 in1008.1 mb 0.06 in1.5 mm 0.00 in0.0 mm 0.09 in2.3 mm
07:10 PM 44.6°F7.0°C 40.4°F4.7°C 85% Calm Calm 4.5 mph7.2 kmh 29.77 in1008.1 mb 0.03 in0.8 mm 0.00 in0.0 mm 0.11 in2.8 mm
07:20 PM 43.7°F6.5°C 39.8°F4.3°C 86% 3.1 mph N5.0 kmh N 12.1 mph19.5 kmh 29.78 in1008.5 mb 0.03 in0.8 mm 0.00 in0.0 mm 0.11 in2.8 mm
07:30 PM 43.2°F6.2°C 39.3°F4.1°C 86% 3.8 mph N6.1 kmh N 9.2 mph14.8 kmh 29.79 in1008.8 mb 0.03 in0.8 mm 0.00 in0.0 mm 0.11 in2.8 mm
07:40 PM 42.6°F5.9°C 38.7°F3.7°C 86% 4.5 mph NW7.2 kmh NW 9.2 mph14.8 kmh 29.79 in1008.8 mb 0.03 in0.8 mm 0.00 in0.0 mm 0.12 in3.0 mm
07:50 PM 42.1°F5.6°C 38.2°F3.4°C 86% 0.7 mph NW1.1 kmh NW 7.6 mph12.2 kmh 29.80 in1009.1 mb 0.03 in0.8 mm 0.00 in0.0 mm 0.12 in3.0 mm
08:00 PM 41.7°F5.4°C 37.8°F3.2°C 86% 1.6 mph NNW2.6 kmh NNW 8.3 mph13.4 kmh 29.80 in1009.1 mb 0.03 in0.8 mm 0.00 in0.0 mm 0.12 in3.0 mm
08:10 PM 41.5°F5.3°C 37.7°F3.2°C 86% 1.6 mph WNW2.6 kmh WNW 3.8 mph6.1 kmh 29.80 in1009.1 mb 0.01 in0.3 mm 0.00 in0.0 mm 0.12 in3.0 mm
08:20 PM 41.2°F5.1°C 37.3°F2.9°C 86% 1.6 mph NE2.6 kmh NE 9.8 mph15.8 kmh 29.80 in1009.1 mb 0.01 in0.3 mm 0.00 in0.0 mm 0.12 in3.0 mm
08:30 PM 41.0°F5.0°C 37.1°F2.8°C 86% 4.5 mph W7.2 kmh W 6.9 mph11.1 kmh 29.80 in1009.1 mb 0.01 in0.3 mm 0.00 in0.0 mm 0.12 in3.0 mm
08:40 PM 40.8°F4.9°C 37.3°F2.9°C 87% 2.2 mph NNE3.5 kmh NNE 6.9 mph11.1 kmh 29.80 in1009.1 mb 0.01 in0.3 mm 0.00 in0.0 mm 0.13 in3.3 mm
08:50 PM 40.6°F4.8°C 37.1°F2.8°C 87% 3.8 mph N6.1 kmh N 13.0 mph20.9 kmh 29.80 in1009.1 mb 0.01 in0.3 mm 0.00 in0.0 mm 0.13 in3.3 mm
09:00 PM 40.6°F4.8°C 37.1°F2.8°C 87% 1.6 mph WSW2.6 kmh WSW 9.2 mph14.8 kmh 29.82 in1009.8 mb 0.01 in0.3 mm 0.00 in0.0 mm 0.13 in3.3 mm
09:10 PM 40.5°F4.7°C 36.9°F2.7°C 87% 3.1 mph N5.0 kmh N 6.0 mph9.7 kmh 29.81 in1009.5 mb 0.01 in0.3 mm 0.00 in0.0 mm 0.13 in3.3 mm
09:20 PM 40.3°F4.6°C 36.7°F2.6°C 87% 0.7 mph NW1.1 kmh NW 6.0 mph9.7 kmh 29.81 in1009.5 mb 0.01 in0.3 mm 0.00 in0.0 mm 0.13 in3.3 mm
09:30 PM 40.3°F4.6°C 36.7°F2.6°C 87% 0.7 mph NW1.1 kmh NW 6.0 mph9.7 kmh 29.82 in1009.8 mb 0.01 in0.3 mm 0.00 in0.0 mm 0.13 in3.3 mm
09:40 PM 40.1°F4.5°C 36.3°F2.4°C 86% 0.7 mph WSW1.1 kmh WSW 7.6 mph12.2 kmh 29.82 in1009.8 mb 0.00 in0.0 mm 0.00 in0.0 mm 0.13 in3.3 mm
09:50 PM 40.1°F4.5°C 36.3°F2.4°C 86% 1.6 mph ENE2.6 kmh ENE 4.5 mph7.2 kmh 29.81 in1009.5 mb 0.00 in0.0 mm 0.00 in0.0 mm 0.13 in3.3 mm
10:00 PM 39.9°F4.4°C 36.1°F2.3°C 86% 0.7 mph SW1.1 kmh SW 5.4 mph8.7 kmh 29.80 in1009.1 mb 0.00 in0.0 mm 0.00 in0.0 mm 0.13 in3.3 mm
10:10 PM 39.9°F4.4°C 36.1°F2.3°C 86% Calm Calm 2.2 mph3.5 kmh 29.81 in1009.5 mb 0.00 in0.0 mm 0.00 in0.0 mm 0.13 in3.3 mm
10:20 PM 39.6°F4.2°C 35.7°F2.1°C 86% 1.6 mph E2.6 kmh E 2.2 mph3.5 kmh 29.82 in1009.8 mb 0.00 in0.0 mm 0.00 in0.0 mm 0.13 in3.3 mm
10:30 PM 39.4°F4.1°C 35.5°F1.9°C 86% Calm Calm 2.2 mph3.5 kmh 29.81 in1009.5 mb 0.00 in0.0 mm 0.00 in0.0 mm 0.13 in3.3 mm
10:40 PM 39.2°F4.0°C 35.4°F1.9°C 86% Calm Calm 1.6 mph2.6 kmh 29.80 in1009.1 mb 0.00 in0.0 mm 0.00 in0.0 mm 0.13 in3.3 mm
10:50 PM 39.0°F3.9°C 35.5°F1.9°C 87% Calm Calm 4.5 mph7.2 kmh 29.81 in1009.5 mb 0.00 in0.0 mm 0.00 in0.0 mm 0.13 in3.3 mm
11:00 PM 39.0°F3.9°C 35.5°F1.9°C 87% Calm Calm 2.2 mph3.5 kmh 29.81 in1009.5 mb 0.00 in0.0 mm 0.00 in0.0 mm 0.13 in3.3 mm
11:10 PM 38.8°F3.8°C 35.3°F1.8°C 87% Calm Calm 0.7 mph1.1 kmh 29.82 in1009.8 mb 0.00 in0.0 mm 0.00 in0.0 mm 0.13 in3.3 mm
11:20 PM 38.7°F3.7°C 35.1°F1.7°C 87% 0.7 mph NW1.1 kmh NW 1.6 mph2.6 kmh 29.82 in1009.8 mb 0.00 in0.0 mm 0.00 in0.0 mm 0.13 in3.3 mm
11:30 PM 38.5°F3.6°C 35.0°F1.7°C 87% Calm Calm 3.1 mph5.0 kmh 29.82 in1009.8 mb 0.00 in0.0 mm 0.00 in0.0 mm 0.13 in3.3 mm
11:40 PM 38.5°F3.6°C 35.0°F1.7°C 87% 0.7 mph W1.1 kmh W 4.5 mph7.2 kmh 29.83 in1010.2 mb 0.00 in0.0 mm 0.00 in0.0 mm 0.13 in3.3 mm
11:50 PM 38.7°F3.7°C 35.1°F1.7°C 87% 2.2 mph SE3.5 kmh SE 3.8 mph6.1 kmh 29.82 in1009.8 mb 0.00 in0.0 mm 0.00 in0.0 mm 0.13 in3.3 mm